This demonstration page uses our WeatherBlox Daily Observations layout. Learn more.

39.29038, -76.61219

Hourly Observations for January 3, 2019

Temp ( °F °C ) Dew Point ( °F °C ) Humidity (%) Winds ( mph kmh ) Pressure ( in mb ) Visibility ( mi km ) Precip ( " mm )
12:54 am 00:54 undefined 45 7.2 39 3.9 80 80 undefined N/A 30 1016 N/A 0 0
1:54 am 01:54 undefined 45 7.2 39 3.9 80 80 undefined N/A 29.97 1015 N/A 0 0
2:54 am 02:54 undefined 45 7.2 38 3.3 77 77 undefined N/A 29.94 1014 N/A 0 0
3:54 am 03:54 undefined 45 7.2 38 3.3 77 77 undefined N/A 29.91 1013 N/A 0 0
4:54 am 04:54 undefined 45 7.2 38 3.3 77 77 undefined N/A 29.91 1013 N/A 0 0
5:54 am 05:54 undefined 46 7.8 38 3.3 73 73 undefined N/A 29.91 1013 N/A 0 0
6:54 am 06:54 undefined 46 7.8 38 3.3 73 73 undefined N/A 29.91 1013 N/A 0 0
7:54 am 07:54 undefined 46 7.8 38 3.3 73 73 undefined N/A 29.94 1014 N/A 0 0
8:54 am 08:54 undefined 47 8.3 37 2.8 69 69 undefined N/A 29.97 1015 N/A 0 0
9:54 am 09:54 undefined 48 8.9 37 2.8 66 66 undefined N/A 30 1016 N/A 0 0
10:54 am 10:54 undefined 49 9.4 33 0.6 55 55 undefined N/A 30 1016 N/A 0 0
11:54 am 11:54 undefined 48 8.9 31 -0.6 52 52 undefined N/A 29.97 1015 N/A 0 0
12:54 pm 12:54 undefined 49 9.4 28 -2.2 44 44 undefined N/A 29.97 1015 N/A 0 0
1:54 pm 13:54 undefined 48 8.9 29 -1.7 48 48 undefined N/A 29.97 1015 N/A 0 0
2:54 pm 14:54 undefined 48 8.9 28 -2.2 46 46 undefined N/A 29.97 1015 N/A 0 0
3:54 pm 15:54 undefined 47 8.3 28 -2.2 48 48 undefined N/A 29.97 1015 N/A 0 0
4:54 pm 16:54 undefined 46 7.8 28 -2.2 50 50 undefined N/A 30 1016 N/A 0 0
5:54 pm 17:54 undefined 45 7.2 28 -2.2 52 52 undefined N/A 30 1016 N/A 0 0
6:54 pm 18:54 undefined 44 6.7 27 -2.8 51 51 undefined N/A 30.03 1017 N/A 0 0
7:54 pm 19:54 undefined 43 6.1 28 -2.2 56 56 undefined N/A 30.06 1018 N/A 0 0
8:54 pm 20:54 undefined 42 5.6 27 -2.8 55 55 undefined N/A 30.06 1018 N/A 0 0
9:54 pm 21:54 undefined 41 5 27 -2.8 57 57 undefined N/A 30.06 1018 N/A 0 0
10:54 pm 22:54 undefined 40 4.4 27 -2.8 60 60 undefined N/A 30.06 1018 N/A 0 0
11:54 pm 23:54 undefined 38 3.3 29 -1.7 70 70 undefined N/A 30.03 1017 N/A 0 0

Powered by AerisWeather